sensor_id;sensor_type;location;lat;lon;timestamp;P1;durP1;ratioP1;P2;durP2;ratioP2
58101;SDS011;52034;51.926;6.320;2023-04-03T00:00:05;4.63;;;4.20;;
58101;SDS011;52034;51.926;6.320;2023-04-03T00:01:07;6.45;;;4.35;;
58101;SDS011;52034;51.926;6.320;2023-04-03T00:02:08;5.50;;;4.28;;
58101;SDS011;52034;51.926;6.320;2023-04-03T00:03:08;5.47;;;4.40;;
58101;SDS011;52034;51.926;6.320;2023-04-03T00:04:09;7.20;;;4.20;;
58101;SDS011;52034;51.926;6.320;2023-04-03T00:05:10;5.60;;;4.13;;
58101;SDS011;52034;51.926;6.320;2023-04-03T00:06:10;5.05;;;4.47;;
58101;SDS011;52034;51.926;6.320;2023-04-03T00:07:11;6.70;;;4.43;;
58101;SDS011;52034;51.926;6.320;2023-04-03T00:08:12;7.53;;;4.60;;
58101;SDS011;52034;51.926;6.320;2023-04-03T00:09:13;8.77;;;4.70;;
58101;SDS011;52034;51.926;6.320;2023-04-03T00:10:13;9.77;;;4.50;;
58101;SDS011;52034;51.926;6.320;2023-04-03T00:11:15;7.00;;;4.35;;
58101;SDS011;52034;51.926;6.320;2023-04-03T00:12:16;4.70;;;4.30;;
58101;SDS011;52034;51.926;6.320;2023-04-03T00:13:16;6.73;;;4.10;;
58101;SDS011;52034;51.926;6.320;2023-04-03T00:14:16;8.47;;;4.40;;
58101;SDS011;52034;51.926;6.320;2023-04-03T00:15:17;7.73;;;4.60;;
58101;SDS011;52034;51.926;6.320;2023-04-03T00:16:17;5.00;;;4.50;;
58101;SDS011;52034;51.926;6.320;2023-04-03T00:17:18;5.57;;;4.40;;
58101;SDS011;52034;51.926;6.320;2023-04-03T00:18:18;6.80;;;4.53;;
58101;SDS011;52034;51.926;6.320;2023-04-03T00:19:19;6.22;;;4.40;;
58101;SDS011;52034;51.926;6.320;2023-04-03T00:20:20;7.13;;;4.53;;
58101;SDS011;52034;51.926;6.320;2023-04-03T00:21:20;8.30;;;4.68;;
58101;SDS011;52034;51.926;6.320;2023-04-03T00:22:21;5.67;;;4.47;;
58101;SDS011;52034;51.926;6.320;2023-04-03T00:23:21;5.67;;;4.13;;
58101;SDS011;52034;51.926;6.320;2023-04-03T00:24:23;5.68;;;4.55;;
58101;SDS011;52034;51.926;6.320;2023-04-03T00:25:24;5.80;;;4.57;;
58101;SDS011;52034;51.926;6.320;2023-04-03T00:26:25;5.33;;;4.40;;
58101;SDS011;52034;51.926;6.320;2023-04-03T00:27:25;5.90;;;4.77;;
58101;SDS011;52034;51.926;6.320;2023-04-03T00:28:26;5.13;;;4.40;;
58101;SDS011;52034;51.926;6.320;2023-04-03T00:29:26;6.45;;;4.65;;
58101;SDS011;52034;51.926;6.320;2023-04-03T00:30:27;4.73;;;4.33;;
58101;SDS011;52034;51.926;6.320;2023-04-03T00:31:27;8.23;;;4.67;;
58101;SDS011;52034;51.926;6.320;2023-04-03T00:32:28;5.63;;;4.70;;
58101;SDS011;52034;51.926;6.320;2023-04-03T00:33:28;6.00;;;5.40;;
58101;SDS011;52034;51.926;6.320;2023-04-03T00:34:28;5.40;;;4.67;;
58101;SDS011;52034;51.926;6.320;2023-04-03T00:35:29;4.97;;;4.47;;
58101;SDS011;52034;51.926;6.320;2023-04-03T00:36:29;5.27;;;4.00;;
58101;SDS011;52034;51.926;6.320;2023-04-03T00:37:30;5.07;;;4.57;;
58101;SDS011;52034;51.926;6.320;2023-04-03T00:38:31;5.03;;;4.30;;
58101;SDS011;52034;51.926;6.320;2023-04-03T00:39:31;5.77;;;4.70;;
58101;SDS011;52034;51.926;6.320;2023-04-03T00:40:35;7.17;;;4.47;;
58101;SDS011;52034;51.926;6.320;2023-04-03T00:41:37;6.18;;;4.32;;
58101;SDS011;52034;51.926;6.320;2023-04-03T00:42:38;4.53;;;4.07;;
58101;SDS011;52034;51.926;6.320;2023-04-03T00:43:40;5.72;;;4.50;;
58101;SDS011;52034;51.926;6.320;2023-04-03T00:45:46;6.87;;;4.43;;
58101;SDS011;52034;51.926;6.320;2023-04-03T00:46:47;6.50;;;4.70;;
58101;SDS011;52034;51.926;6.320;2023-04-03T00:47:48;6.70;;;4.60;;
58101;SDS011;52034;51.926;6.320;2023-04-03T00:48:48;6.03;;;4.33;;
58101;SDS011;52034;51.926;6.320;2023-04-03T00:49:49;5.60;;;4.53;;
58101;SDS011;52034;51.926;6.320;2023-04-03T00:51:52;6.30;;;4.57;;
58101;SDS011;52034;51.926;6.320;2023-04-03T00:52:53;7.72;;;4.88;;
58101;SDS011;52034;51.926;6.320;2023-04-03T00:54:01;9.25;;;5.32;;
58101;SDS011;52034;51.926;6.320;2023-04-03T00:55:05;7.40;;;4.80;;
58101;SDS011;52034;51.926;6.320;2023-04-03T00:56:09;5.93;;;4.65;;
58101;SDS011;52034;51.926;6.320;2023-04-03T00:57:12;7.43;;;4.70;;
58101;SDS011;52034;51.926;6.320;2023-04-03T00:58:15;4.95;;;4.20;;
58101;SDS011;52034;51.926;6.320;2023-04-03T00:59:21;4.32;;;4.03;;
58101;SDS011;52034;51.926;6.320;2023-04-03T01:00:26;5.00;;;4.45;;
58101;SDS011;52034;51.926;6.320;2023-04-03T01:01:28;4.80;;;4.40;;
58101;SDS011;52034;51.926;6.320;2023-04-03T01:02:29;6.82;;;4.75;;
58101;SDS011;52034;51.926;6.320;2023-04-03T01:03:29;5.67;;;4.60;;
58101;SDS011;52034;51.926;6.320;2023-04-03T01:04:35;6.22;;;4.45;;
58101;SDS011;52034;51.926;6.320;2023-04-03T01:05:37;7.53;;;4.53;;
58101;SDS011;52034;51.926;6.320;2023-04-03T01:06:38;5.78;;;4.95;;
58101;SDS011;52034;51.926;6.320;2023-04-03T01:07:42;6.95;;;4.88;;
58101;SDS011;52034;51.926;6.320;2023-04-03T01:08:43;6.88;;;4.50;;
58101;SDS011;52034;51.926;6.320;2023-04-03T01:09:45;6.53;;;4.97;;
58101;SDS011;52034;51.926;6.320;2023-04-03T01:10:47;6.28;;;4.63;;
58101;SDS011;52034;51.926;6.320;2023-04-03T01:11:48;7.47;;;4.80;;
58101;SDS011;52034;51.926;6.320;2023-04-03T01:12:49;5.23;;;4.57;;
58101;SDS011;52034;51.926;6.320;2023-04-03T01:13:50;4.90;;;4.40;;
58101;SDS011;52034;51.926;6.320;2023-04-03T01:14:53;5.13;;;4.30;;
58101;SDS011;52034;51.926;6.320;2023-04-03T01:16:00;6.55;;;4.47;;
58101;SDS011;52034;51.926;6.320;2023-04-03T01:17:23;7.32;;;4.88;;
58101;SDS011;52034;51.926;6.320;2023-04-03T01:18:38;5.57;;;4.63;;
58101;SDS011;52034;51.926;6.320;2023-04-03T01:19:40;6.10;;;4.55;;
58101;SDS011;52034;51.926;6.320;2023-04-03T01:22:45;6.85;;;4.80;;
58101;SDS011;52034;51.926;6.320;2023-04-03T01:24:10;6.95;;;4.72;;
58101;SDS011;52034;51.926;6.320;2023-04-03T01:25:18;8.90;;;5.15;;
58101;SDS011;52034;51.926;6.320;2023-04-03T01:26:18;6.50;;;4.50;;
58101;SDS011;52034;51.926;6.320;2023-04-03T01:27:19;5.35;;;4.57;;
58101;SDS011;52034;51.926;6.320;2023-04-03T01:28:22;5.60;;;4.53;;
58101;SDS011;52034;51.926;6.320;2023-04-03T01:29:25;5.10;;;4.60;;
58101;SDS011;52034;51.926;6.320;2023-04-03T01:30:28;7.50;;;4.90;;
58101;SDS011;52034;51.926;6.320;2023-04-03T01:33:46;7.15;;;4.90;;
58101;SDS011;52034;51.926;6.320;2023-04-03T01:34:46;6.43;;;4.77;;
58101;SDS011;52034;51.926;6.320;2023-04-03T01:35:47;4.87;;;4.37;;
58101;SDS011;52034;51.926;6.320;2023-04-03T01:36:47;5.20;;;4.57;;
58101;SDS011;52034;51.926;6.320;2023-04-03T01:37:48;6.77;;;4.63;;
58101;SDS011;52034;51.926;6.320;2023-04-03T01:38:48;6.83;;;4.83;;
58101;SDS011;52034;51.926;6.320;2023-04-03T01:39:49;8.20;;;5.00;;
58101;SDS011;52034;51.926;6.320;2023-04-03T01:40:49;7.43;;;5.30;;
58101;SDS011;52034;51.926;6.320;2023-04-03T01:41:50;6.57;;;4.70;;
58101;SDS011;52034;51.926;6.320;2023-04-03T01:42:57;7.38;;;4.95;;
58101;SDS011;52034;51.926;6.320;2023-04-03T01:43:57;6.30;;;4.53;;
58101;SDS011;52034;51.926;6.320;2023-04-03T01:44:58;7.40;;;4.80;;
58101;SDS011;52034;51.926;6.320;2023-04-03T01:45:58;6.93;;;4.70;;
58101;SDS011;52034;51.926;6.320;2023-04-03T01:46:59;7.00;;;4.70;;
58101;SDS011;52034;51.926;6.320;2023-04-03T01:48:01;8.45;;;5.13;;
58101;SDS011;52034;51.926;6.320;2023-04-03T01:49:02;7.60;;;5.10;;
58101;SDS011;52034;51.926;6.320;2023-04-03T01:50:03;8.20;;;5.00;;
58101;SDS011;52034;51.926;6.320;2023-04-03T01:51:06;7.50;;;5.10;;
58101;SDS011;52034;51.926;6.320;2023-04-03T01:52:06;6.23;;;4.87;;
58101;SDS011;52034;51.926;6.320;2023-04-03T01:53:07;6.07;;;4.90;;
58101;SDS011;52034;51.926;6.320;2023-04-03T01:54:08;7.07;;;4.93;;
58101;SDS011;52034;51.926;6.320;2023-04-03T01:55:09;7.90;;;4.93;;
58101;SDS011;52034;51.926;6.320;2023-04-03T01:56:09;6.43;;;5.10;;
58101;SDS011;52034;51.926;6.320;2023-04-03T01:57:10;6.73;;;4.97;;
58101;SDS011;52034;51.926;6.320;2023-04-03T01:58:10;7.73;;;4.83;;
58101;SDS011;52034;51.926;6.320;2023-04-03T01:59:11;7.67;;;5.03;;
58101;SDS011;52034;51.926;6.320;2023-04-03T02:00:11;6.43;;;5.10;;
58101;SDS011;52034;51.926;6.320;2023-04-03T02:01:15;5.68;;;4.75;;
58101;SDS011;52034;51.926;6.320;2023-04-03T02:02:16;6.10;;;5.00;;
58101;SDS011;52034;51.926;6.320;2023-04-03T02:03:16;7.33;;;5.20;;
58101;SDS011;52034;51.926;6.320;2023-04-03T02:04:17;8.90;;;5.17;;
58101;SDS011;52034;51.926;6.320;2023-04-03T02:05:17;9.90;;;4.73;;
58101;SDS011;52034;51.926;6.320;2023-04-03T02:06:18;5.87;;;4.83;;
58101;SDS011;52034;51.926;6.320;2023-04-03T02:07:18;6.70;;;5.00;;
58101;SDS011;52034;51.926;6.320;2023-04-03T02:08:19;5.70;;;4.50;;
58101;SDS011;52034;51.926;6.320;2023-04-03T02:09:19;6.83;;;4.70;;
58101;SDS011;52034;51.926;6.320;2023-04-03T02:10:19;11.77;;;5.00;;
58101;SDS011;52034;51.926;6.320;2023-04-03T02:11:20;7.47;;;5.20;;
58101;SDS011;52034;51.926;6.320;2023-04-03T02:12:20;9.17;;;5.23;;
58101;SDS011;52034;51.926;6.320;2023-04-03T02:13:21;6.03;;;5.17;;
58101;SDS011;52034;51.926;6.320;2023-04-03T02:14:21;5.87;;;4.53;;
58101;SDS011;52034;51.926;6.320;2023-04-03T02:15:23;7.82;;;4.70;;
58101;SDS011;52034;51.926;6.320;2023-04-03T02:16:23;7.80;;;4.97;;
58101;SDS011;52034;51.926;6.320;2023-04-03T02:17:24;5.03;;;4.57;;
58101;SDS011;52034;51.926;6.320;2023-04-03T02:18:24;5.00;;;4.57;;
58101;SDS011;52034;51.926;6.320;2023-04-03T02:19:25;5.80;;;4.87;;
58101;SDS011;52034;51.926;6.320;2023-04-03T02:20:25;7.90;;;4.87;;
58101;SDS011;52034;51.926;6.320;2023-04-03T02:21:26;6.65;;;5.07;;
58101;SDS011;52034;51.926;6.320;2023-04-03T02:22:27;8.68;;;4.65;;
58101;SDS011;52034;51.926;6.320;2023-04-03T02:23:27;6.83;;;5.37;;
58101;SDS011;52034;51.926;6.320;2023-04-03T02:24:28;9.37;;;5.13;;
58101;SDS011;52034;51.926;6.320;2023-04-03T02:25:30;8.50;;;5.23;;
58101;SDS011;52034;51.926;6.320;2023-04-03T02:26:31;6.60;;;4.72;;
58101;SDS011;52034;51.926;6.320;2023-04-03T02:27:31;9.60;;;4.80;;
58101;SDS011;52034;51.926;6.320;2023-04-03T02:28:32;8.03;;;5.23;;
58101;SDS011;52034;51.926;6.320;2023-04-03T02:29:32;7.97;;;4.80;;
58101;SDS011;52034;51.926;6.320;2023-04-03T02:30:32;8.07;;;4.70;;
58101;SDS011;52034;51.926;6.320;2023-04-03T02:31:33;8.03;;;5.13;;
58101;SDS011;52034;51.926;6.320;2023-04-03T02:32:35;9.63;;;5.00;;
58101;SDS011;52034;51.926;6.320;2023-04-03T02:33:36;6.93;;;4.75;;
58101;SDS011;52034;51.926;6.320;2023-04-03T02:34:38;6.50;;;5.03;;
58101;SDS011;52034;51.926;6.320;2023-04-03T02:35:39;8.68;;;4.78;;
58101;SDS011;52034;51.926;6.320;2023-04-03T02:36:40;7.95;;;5.03;;
58101;SDS011;52034;51.926;6.320;2023-04-03T02:37:42;6.82;;;5.30;;
58101;SDS011;52034;51.926;6.320;2023-04-03T02:38:43;7.43;;;5.03;;
58101;SDS011;52034;51.926;6.320;2023-04-03T02:39:44;6.55;;;4.57;;
58101;SDS011;52034;51.926;6.320;2023-04-03T02:40:44;5.43;;;4.73;;
58101;SDS011;52034;51.926;6.320;2023-04-03T02:41:45;7.63;;;5.03;;
58101;SDS011;52034;51.926;6.320;2023-04-03T02:42:51;7.72;;;4.93;;
58101;SDS011;52034;51.926;6.320;2023-04-03T02:43:52;7.97;;;4.88;;
58101;SDS011;52034;51.926;6.320;2023-04-03T02:44:53;6.17;;;4.97;;
58101;SDS011;52034;51.926;6.320;2023-04-03T02:45:53;5.70;;;4.63;;
58101;SDS011;52034;51.926;6.320;2023-04-03T02:46:53;7.13;;;4.90;;
58101;SDS011;52034;51.926;6.320;2023-04-03T02:47:54;6.67;;;5.33;;
58101;SDS011;52034;51.926;6.320;2023-04-03T02:48:54;7.03;;;4.70;;
58101;SDS011;52034;51.926;6.320;2023-04-03T02:49:55;5.80;;;4.60;;
58101;SDS011;52034;51.926;6.320;2023-04-03T02:50:55;8.37;;;5.13;;
58101;SDS011;52034;51.926;6.320;2023-04-03T02:51:56;8.10;;;5.50;;
58101;SDS011;52034;51.926;6.320;2023-04-03T02:52:56;8.50;;;4.70;;
58101;SDS011;52034;51.926;6.320;2023-04-03T02:53:56;6.90;;;4.80;;
58101;SDS011;52034;51.926;6.320;2023-04-03T02:55:01;6.80;;;4.90;;
58101;SDS011;52034;51.926;6.320;2023-04-03T02:56:01;7.70;;;5.00;;
58101;SDS011;52034;51.926;6.320;2023-04-03T02:57:02;10.23;;;5.20;;
58101;SDS011;52034;51.926;6.320;2023-04-03T02:58:02;6.47;;;5.00;;
58101;SDS011;52034;51.926;6.320;2023-04-03T02:59:03;9.55;;;5.47;;
58101;SDS011;52034;51.926;6.320;2023-04-03T03:00:06;8.02;;;5.18;;
58101;SDS011;52034;51.926;6.320;2023-04-03T03:01:07;6.32;;;5.03;;
58101;SDS011;52034;51.926;6.320;2023-04-03T03:02:08;6.20;;;4.77;;
58101;SDS011;52034;51.926;6.320;2023-04-03T03:03:08;5.72;;;4.70;;
58101;SDS011;52034;51.926;6.320;2023-04-03T03:04:09;7.63;;;4.70;;
58101;SDS011;52034;51.926;6.320;2023-04-03T03:05:09;9.23;;;4.93;;
58101;SDS011;52034;51.926;6.320;2023-04-03T03:06:11;8.33;;;5.10;;
58101;SDS011;52034;51.926;6.320;2023-04-03T03:07:13;10.85;;;4.80;;
58101;SDS011;52034;51.926;6.320;2023-04-03T03:08:15;6.03;;;4.78;;
58101;SDS011;52034;51.926;6.320;2023-04-03T03:09:15;7.87;;;5.30;;
58101;SDS011;52034;51.926;6.320;2023-04-03T03:10:16;6.25;;;4.80;;
58101;SDS011;52034;51.926;6.320;2023-04-03T03:11:17;7.17;;;5.07;;
58101;SDS011;52034;51.926;6.320;2023-04-03T03:12:17;5.77;;;4.83;;
58101;SDS011;52034;51.926;6.320;2023-04-03T03:13:21;8.32;;;4.95;;
58101;SDS011;52034;51.926;6.320;2023-04-03T03:14:22;8.53;;;5.37;;
58101;SDS011;52034;51.926;6.320;2023-04-03T03:15:22;10.95;;;5.22;;
58101;SDS011;52034;51.926;6.320;2023-04-03T03:16:23;7.50;;;5.13;;
58101;SDS011;52034;51.926;6.320;2023-04-03T03:17:23;7.30;;;5.00;;
58101;SDS011;52034;51.926;6.320;2023-04-03T03:18:24;7.33;;;5.30;;
58101;SDS011;52034;51.926;6.320;2023-04-03T03:19:24;8.93;;;5.30;;
58101;SDS011;52034;51.926;6.320;2023-04-03T03:20:26;8.27;;;4.63;;
58101;SDS011;52034;51.926;6.320;2023-04-03T03:21:26;7.47;;;4.93;;
58101;SDS011;52034;51.926;6.320;2023-04-03T03:22:27;6.80;;;4.97;;
58101;SDS011;52034;51.926;6.320;2023-04-03T03:23:29;9.18;;;5.10;;
58101;SDS011;52034;51.926;6.320;2023-04-03T03:24:30;5.20;;;4.63;;
58101;SDS011;52034;51.926;6.320;2023-04-03T03:25:30;7.20;;;4.87;;
58101;SDS011;52034;51.926;6.320;2023-04-03T03:26:31;8.17;;;5.47;;
58101;SDS011;52034;51.926;6.320;2023-04-03T03:27:31;5.87;;;5.17;;
58101;SDS011;52034;51.926;6.320;2023-04-03T03:28:32;7.13;;;5.00;;
58101;SDS011;52034;51.926;6.320;2023-04-03T03:29:32;8.68;;;4.78;;
58101;SDS011;52034;51.926;6.320;2023-04-03T03:30:33;7.27;;;5.10;;
58101;SDS011;52034;51.926;6.320;2023-04-03T03:31:33;7.13;;;5.00;;
58101;SDS011;52034;51.926;6.320;2023-04-03T03:32:34;5.77;;;4.70;;
58101;SDS011;52034;51.926;6.320;2023-04-03T03:33:35;6.07;;;4.70;;
58101;SDS011;52034;51.926;6.320;2023-04-03T03:34:36;6.87;;;4.93;;
58101;SDS011;52034;51.926;6.320;2023-04-03T03:35:36;10.13;;;5.27;;
58101;SDS011;52034;51.926;6.320;2023-04-03T03:36:37;6.37;;;5.03;;
58101;SDS011;52034;51.926;6.320;2023-04-03T03:37:37;5.90;;;5.10;;
58101;SDS011;52034;51.926;6.320;2023-04-03T03:38:37;5.97;;;5.27;;
58101;SDS011;52034;51.926;6.320;2023-04-03T03:39:38;8.05;;;5.65;;
58101;SDS011;52034;51.926;6.320;2023-04-03T03:40:38;10.27;;;5.57;;
58101;SDS011;52034;51.926;6.320;2023-04-03T03:41:39;5.53;;;5.00;;
58101;SDS011;52034;51.926;6.320;2023-04-03T03:42:40;6.40;;;5.40;;
58101;SDS011;52034;51.926;6.320;2023-04-03T03:43:40;8.13;;;5.00;;
58101;SDS011;52034;51.926;6.320;2023-04-03T03:44:41;7.10;;;4.90;;
58101;SDS011;52034;51.926;6.320;2023-04-03T03:45:42;8.60;;;5.17;;
58101;SDS011;52034;51.926;6.320;2023-04-03T03:46:42;8.17;;;5.27;;
58101;SDS011;52034;51.926;6.320;2023-04-03T03:47:42;8.43;;;5.40;;
58101;SDS011;52034;51.926;6.320;2023-04-03T03:48:43;8.00;;;5.03;;
58101;SDS011;52034;51.926;6.320;2023-04-03T03:49:43;10.17;;;5.60;;
58101;SDS011;52034;51.926;6.320;2023-04-03T03:50:43;6.93;;;5.33;;
58101;SDS011;52034;51.926;6.320;2023-04-03T03:51:44;7.47;;;5.25;;
58101;SDS011;52034;51.926;6.320;2023-04-03T03:52:45;6.78;;;5.07;;
58101;SDS011;52034;51.926;6.320;2023-04-03T03:53:46;7.97;;;5.37;;
58101;SDS011;52034;51.926;6.320;2023-04-03T03:54:49;7.55;;;5.40;;
58101;SDS011;52034;51.926;6.320;2023-04-03T03:55:50;9.40;;;5.23;;
58101;SDS011;52034;51.926;6.320;2023-04-03T03:56:53;7.03;;;5.60;;
58101;SDS011;52034;51.926;6.320;2023-04-03T03:57:53;8.00;;;5.43;;
58101;SDS011;52034;51.926;6.320;2023-04-03T03:58:54;7.75;;;5.07;;
58101;SDS011;52034;51.926;6.320;2023-04-03T03:59:56;8.30;;;5.40;;
58101;SDS011;52034;51.926;6.320;2023-04-03T04:00:59;7.05;;;5.18;;
58101;SDS011;52034;51.926;6.320;2023-04-03T04:02:01;7.78;;;5.40;;
58101;SDS011;52034;51.926;6.320;2023-04-03T04:03:01;7.90;;;5.03;;
58101;SDS011;52034;51.926;6.320;2023-04-03T04:04:03;7.53;;;5.30;;
58101;SDS011;52034;51.926;6.320;2023-04-03T04:06:06;8.85;;;4.85;;
58101;SDS011;52034;51.926;6.320;2023-04-03T04:07:06;7.37;;;5.43;;
58101;SDS011;52034;51.926;6.320;2023-04-03T04:08:07;8.20;;;5.40;;
58101;SDS011;52034;51.926;6.320;2023-04-03T04:09:08;7.33;;;4.97;;
58101;SDS011;52034;51.926;6.320;2023-04-03T04:10:09;8.73;;;5.40;;
58101;SDS011;52034;51.926;6.320;2023-04-03T04:11:10;7.97;;;5.00;;
58101;SDS011;52034;51.926;6.320;2023-04-03T04:12:11;8.77;;;5.03;;
58101;SDS011;52034;51.926;6.320;2023-04-03T04:13:12;6.63;;;5.22;;
58101;SDS011;52034;51.926;6.320;2023-04-03T04:14:13;9.32;;;5.47;;
58101;SDS011;52034;51.926;6.320;2023-04-03T04:15:14;10.45;;;5.25;;
58101;SDS011;52034;51.926;6.320;2023-04-03T04:16:15;5.40;;;4.90;;
58101;SDS011;52034;51.926;6.320;2023-04-03T04:17:15;10.37;;;5.37;;
58101;SDS011;52034;51.926;6.320;2023-04-03T04:18:16;7.93;;;5.47;;
58101;SDS011;52034;51.926;6.320;2023-04-03T04:19:20;10.82;;;5.72;;
58101;SDS011;52034;51.926;6.320;2023-04-03T04:20:20;5.73;;;5.00;;
58101;SDS011;52034;51.926;6.320;2023-04-03T04:21:21;7.97;;;5.13;;
58101;SDS011;52034;51.926;6.320;2023-04-03T04:22:24;8.80;;;5.30;;
58101;SDS011;52034;51.926;6.320;2023-04-03T04:23:24;13.00;;;5.33;;
58101;SDS011;52034;51.926;6.320;2023-04-03T04:24:25;7.57;;;4.70;;
58101;SDS011;52034;51.926;6.320;2023-04-03T04:25:27;8.98;;;5.53;;
58101;SDS011;52034;51.926;6.320;2023-04-03T04:26:28;9.40;;;5.57;;
58101;SDS011;52034;51.926;6.320;2023-04-03T04:27:28;11.90;;;5.70;;
58101;SDS011;52034;51.926;6.320;2023-04-03T04:28:29;8.52;;;5.25;;
58101;SDS011;52034;51.926;6.320;2023-04-03T04:29:31;10.73;;;5.07;;
58101;SDS011;52034;51.926;6.320;2023-04-03T04:30:35;10.05;;;5.28;;
58101;SDS011;52034;51.926;6.320;2023-04-03T04:31:36;10.10;;;5.63;;
58101;SDS011;52034;51.926;6.320;2023-04-03T04:32:37;10.23;;;5.20;;
58101;SDS011;52034;51.926;6.320;2023-04-03T04:33:37;9.83;;;5.50;;
58101;SDS011;52034;51.926;6.320;2023-04-03T04:34:39;9.52;;;5.80;;
58101;SDS011;52034;51.926;6.320;2023-04-03T04:35:41;7.10;;;5.10;;
58101;SDS011;52034;51.926;6.320;2023-04-03T04:36:43;7.88;;;5.53;;
58101;SDS011;52034;51.926;6.320;2023-04-03T04:37:43;9.43;;;5.50;;
58101;SDS011;52034;51.926;6.320;2023-04-03T04:38:45;5.78;;;5.18;;
58101;SDS011;52034;51.926;6.320;2023-04-03T04:39:45;10.07;;;5.55;;
58101;SDS011;52034;51.926;6.320;2023-04-03T04:40:47;9.27;;;5.50;;
58101;SDS011;52034;51.926;6.320;2023-04-03T04:42:48;10.27;;;5.35;;
58101;SDS011;52034;51.926;6.320;2023-04-03T04:43:49;9.32;;;5.47;;
58101;SDS011;52034;51.926;6.320;2023-04-03T04:44:50;7.72;;;5.35;;
58101;SDS011;52034;51.926;6.320;2023-04-03T04:46:01;10.27;;;5.47;;
58101;SDS011;52034;51.926;6.320;2023-04-03T04:47:13;6.18;;;5.28;;
58101;SDS011;52034;51.926;6.320;2023-04-03T04:48:14;11.45;;;5.90;;
58101;SDS011;52034;51.926;6.320;2023-04-03T04:49:15;6.60;;;5.20;;
58101;SDS011;52034;51.926;6.320;2023-04-03T04:50:15;8.17;;;6.07;;
58101;SDS011;52034;51.926;6.320;2023-04-03T04:51:16;9.45;;;5.47;;
58101;SDS011;52034;51.926;6.320;2023-04-03T04:52:17;9.37;;;5.27;;
58101;SDS011;52034;51.926;6.320;2023-04-03T04:53:17;8.73;;;5.37;;
58101;SDS011;52034;51.926;6.320;2023-04-03T04:54:17;7.03;;;5.40;;
58101;SDS011;52034;51.926;6.320;2023-04-03T04:55:20;5.70;;;5.10;;
58101;SDS011;52034;51.926;6.320;2023-04-03T04:56:20;9.33;;;5.97;;
58101;SDS011;52034;51.926;6.320;2023-04-03T04:57:21;8.00;;;5.28;;
58101;SDS011;52034;51.926;6.320;2023-04-03T04:58:22;8.70;;;5.70;;
58101;SDS011;52034;51.926;6.320;2023-04-03T04:59:23;6.90;;;5.40;;
58101;SDS011;52034;51.926;6.320;2023-04-03T05:00:26;11.13;;;5.47;;
58101;SDS011;52034;51.926;6.320;2023-04-03T05:01:26;7.80;;;5.70;;
58101;SDS011;52034;51.926;6.320;2023-04-03T05:02:33;9.45;;;5.60;;
58101;SDS011;52034;51.926;6.320;2023-04-03T05:03:34;5.87;;;5.20;;
58101;SDS011;52034;51.926;6.320;2023-04-03T05:04:35;8.03;;;5.50;;
58101;SDS011;52034;51.926;6.320;2023-04-03T05:05:41;9.73;;;5.93;;
58101;SDS011;52034;51.926;6.320;2023-04-03T05:06:41;7.43;;;5.43;;
58101;SDS011;52034;51.926;6.320;2023-04-03T05:07:47;6.95;;;5.13;;
58101;SDS011;52034;51.926;6.320;2023-04-03T05:08:48;6.93;;;5.45;;
58101;SDS011;52034;51.926;6.320;2023-04-03T05:09:48;10.90;;;5.90;;
58101;SDS011;52034;51.926;6.320;2023-04-03T05:11:51;8.05;;;5.43;;
58101;SDS011;52034;51.926;6.320;2023-04-03T05:12:55;6.45;;;5.35;;
58101;SDS011;52034;51.926;6.320;2023-04-03T05:13:55;8.70;;;5.07;;
58101;SDS011;52034;51.926;6.320;2023-04-03T05:14:57;8.13;;;5.53;;
58101;SDS011;52034;51.926;6.320;2023-04-03T05:15:59;7.78;;;5.18;;
58101;SDS011;52034;51.926;6.320;2023-04-03T05:17:00;8.33;;;5.53;;
58101;SDS011;52034;51.926;6.320;2023-04-03T05:18:03;9.93;;;5.82;;
58101;SDS011;52034;51.926;6.320;2023-04-03T05:19:03;9.10;;;5.80;;
58101;SDS011;52034;51.926;6.320;2023-04-03T05:20:04;9.83;;;5.57;;
58101;SDS011;52034;51.926;6.320;2023-04-03T05:21:05;7.85;;;5.38;;
58101;SDS011;52034;51.926;6.320;2023-04-03T05:22:06;7.33;;;5.50;;
58101;SDS011;52034;51.926;6.320;2023-04-03T05:23:06;9.00;;;5.43;;
58101;SDS011;52034;51.926;6.320;2023-04-03T05:24:08;7.00;;;5.40;;
58101;SDS011;52034;51.926;6.320;2023-04-03T05:25:12;9.52;;;5.80;;
58101;SDS011;52034;51.926;6.320;2023-04-03T05:26:15;10.57;;;5.72;;
58101;SDS011;52034;51.926;6.320;2023-04-03T05:27:17;6.32;;;5.47;;
58101;SDS011;52034;51.926;6.320;2023-04-03T05:28:21;11.57;;;6.10;;
58101;SDS011;52034;51.926;6.320;2023-04-03T05:29:21;8.70;;;6.03;;
58101;SDS011;52034;51.926;6.320;2023-04-03T05:30:23;9.38;;;5.50;;
58101;SDS011;52034;51.926;6.320;2023-04-03T05:31:23;9.30;;;5.40;;
58101;SDS011;52034;51.926;6.320;2023-04-03T05:32:24;9.67;;;5.70;;
58101;SDS011;52034;51.926;6.320;2023-04-03T05:33:36;8.98;;;5.35;;
58101;SDS011;52034;51.926;6.320;2023-04-03T05:34:39;7.32;;;5.10;;
58101;SDS011;52034;51.926;6.320;2023-04-03T05:35:39;7.53;;;5.30;;
58101;SDS011;52034;51.926;6.320;2023-04-03T05:36:42;7.72;;;5.63;;
58101;SDS011;52034;51.926;6.320;2023-04-03T05:37:43;11.05;;;6.20;;
58101;SDS011;52034;51.926;6.320;2023-04-03T05:38:44;8.82;;;5.63;;
58101;SDS011;52034;51.926;6.320;2023-04-03T05:39:45;12.73;;;5.60;;
58101;SDS011;52034;51.926;6.320;2023-04-03T05:40:45;10.73;;;5.57;;
58101;SDS011;52034;51.926;6.320;2023-04-03T05:41:46;8.97;;;5.50;;
58101;SDS011;52034;51.926;6.320;2023-04-03T05:42:46;9.07;;;5.80;;
58101;SDS011;52034;51.926;6.320;2023-04-03T05:43:48;7.80;;;5.53;;
58101;SDS011;52034;51.926;6.320;2023-04-03T05:44:48;9.47;;;5.60;;
58101;SDS011;52034;51.926;6.320;2023-04-03T05:46:51;6.65;;;5.43;;
58101;SDS011;52034;51.926;6.320;2023-04-03T05:47:51;10.67;;;5.53;;
58101;SDS011;52034;51.926;6.320;2023-04-03T05:48:51;9.63;;;6.10;;
58101;SDS011;52034;51.926;6.320;2023-04-03T05:49:55;10.13;;;5.60;;
58101;SDS011;52034;51.926;6.320;2023-04-03T05:50:55;7.50;;;5.53;;
58101;SDS011;52034;51.926;6.320;2023-04-03T05:51:59;11.57;;;5.82;;
58101;SDS011;52034;51.926;6.320;2023-04-03T05:53:03;8.70;;;5.43;;
58101;SDS011;52034;51.926;6.320;2023-04-03T05:54:09;8.32;;;5.40;;
58101;SDS011;52034;51.926;6.320;2023-04-03T05:55:14;13.73;;;5.43;;
58101;SDS011;52034;51.926;6.320;2023-04-03T05:56:14;9.60;;;5.80;;
58101;SDS011;52034;51.926;6.320;2023-04-03T05:57:15;7.33;;;5.50;;
58101;SDS011;52034;51.926;6.320;2023-04-03T05:58:19;12.27;;;5.63;;
58101;SDS011;52034;51.926;6.320;2023-04-03T05:59:21;7.85;;;5.40;;
58101;SDS011;52034;51.926;6.320;2023-04-03T06:00:23;10.70;;;5.38;;
58101;SDS011;52034;51.926;6.320;2023-04-03T06:01:33;8.68;;;5.32;;
58101;SDS011;52034;51.926;6.320;2023-04-03T06:03:35;9.15;;;5.47;;
58101;SDS011;52034;51.926;6.320;2023-04-03T06:04:36;10.17;;;5.50;;
58101;SDS011;52034;51.926;6.320;2023-04-03T06:05:36;7.90;;;5.33;;
58101;SDS011;52034;51.926;6.320;2023-04-03T06:06:53;8.03;;;5.60;;
58101;SDS011;52034;51.926;6.320;2023-04-03T06:07:55;6.50;;;5.03;;
58101;SDS011;52034;51.926;6.320;2023-04-03T06:08:56;8.70;;;5.68;;
58101;SDS011;52034;51.926;6.320;2023-04-03T06:09:57;8.97;;;4.97;;
58101;SDS011;52034;51.926;6.320;2023-04-03T06:10:58;10.40;;;5.67;;
58101;SDS011;52034;51.926;6.320;2023-04-03T06:11:58;8.80;;;5.13;;
58101;SDS011;52034;51.926;6.320;2023-04-03T06:12:59;7.72;;;5.13;;
58101;SDS011;52034;51.926;6.320;2023-04-03T06:13:59;9.43;;;5.23;;
58101;SDS011;52034;51.926;6.320;2023-04-03T06:15:00;7.78;;;5.60;;
58101;SDS011;52034;51.926;6.320;2023-04-03T06:16:01;9.17;;;5.50;;
58101;SDS011;52034;51.926;6.320;2023-04-03T06:17:02;9.95;;;5.25;;
58101;SDS011;52034;51.926;6.320;2023-04-03T06:18:04;8.55;;;5.50;;
58101;SDS011;52034;51.926;6.320;2023-04-03T06:19:05;9.60;;;5.77;;
58101;SDS011;52034;51.926;6.320;2023-04-03T06:20:07;7.70;;;5.07;;
58101;SDS011;52034;51.926;6.320;2023-04-03T06:21:08;10.68;;;5.15;;